sensor_id;sensor_type;location;lat;lon;timestamp;pressure;altitude;pressure_sealevel;temperature;humidity
31285;BME280;56605;51.516;6.742;2022-08-19T00:02:14;101090.69;;;18.60;100.00
31285;BME280;56605;51.516;6.742;2022-08-19T00:04:39;101081.94;;;18.65;100.00
31285;BME280;56605;51.516;6.742;2022-08-19T00:07:05;101089.16;;;18.78;100.00
31285;BME280;56605;51.516;6.742;2022-08-19T00:09:31;101083.38;;;18.68;100.00
31285;BME280;56605;51.516;6.742;2022-08-19T00:11:57;101088.16;;;18.72;100.00
31285;BME280;56605;51.516;6.742;2022-08-19T00:14:24;101091.91;;;18.71;100.00
31285;BME280;56605;51.516;6.742;2022-08-19T00:16:50;101081.72;;;18.67;100.00
31285;BME280;56605;51.516;6.742;2022-08-19T00:19:19;101095.94;;;18.35;100.00
31285;BME280;56605;51.516;6.742;2022-08-19T00:21:45;101088.91;;;18.27;100.00
31285;BME280;56605;51.516;6.742;2022-08-19T00:24:13;101101.38;;;18.21;100.00
31285;BME280;56605;51.516;6.742;2022-08-19T00:26:39;101098.06;;;18.19;100.00
31285;BME280;56605;51.516;6.742;2022-08-19T00:29:07;101096.16;;;18.20;100.00
31285;BME280;56605;51.516;6.742;2022-08-19T00:31:32;101100.75;;;18.33;100.00
31285;BME280;56605;51.516;6.742;2022-08-19T00:33:58;101091.38;;;18.35;100.00
31285;BME280;56605;51.516;6.742;2022-08-19T00:36:24;101087.63;;;18.36;100.00
31285;BME280;56605;51.516;6.742;2022-08-19T00:38:49;101083.44;;;18.41;100.00
31285;BME280;56605;51.516;6.742;2022-08-19T00:41:18;101088.06;;;18.27;100.00
31285;BME280;56605;51.516;6.742;2022-08-19T00:44:07;101075.19;;;18.22;100.00
31285;BME280;56605;51.516;6.742;2022-08-19T00:46:35;101078.72;;;18.16;100.00
31285;BME280;56605;51.516;6.742;2022-08-19T00:51:47;101083.53;;;18.14;100.00
31285;BME280;56605;51.516;6.742;2022-08-19T00:54:13;101076.63;;;18.04;100.00
31285;BME280;56605;51.516;6.742;2022-08-19T00:56:40;101081.00;;;17.92;100.00
31285;BME280;56605;51.516;6.742;2022-08-19T00:59:06;101079.53;;;17.89;100.00
31285;BME280;56605;51.516;6.742;2022-08-19T01:01:35;101084.34;;;17.87;100.00
31285;BME280;56605;51.516;6.742;2022-08-19T01:04:00;101076.03;;;17.82;100.00
31285;BME280;56605;51.516;6.742;2022-08-19T01:06:26;101081.63;;;17.80;100.00
31285;BME280;56605;51.516;6.742;2022-08-19T01:08:52;101079.56;;;17.82;100.00
31285;BME280;56605;51.516;6.742;2022-08-19T01:11:17;101074.56;;;17.99;100.00
31285;BME280;56605;51.516;6.742;2022-08-19T01:13:42;101066.88;;;18.03;100.00
31285;BME280;56605;51.516;6.742;2022-08-19T01:16:09;101068.16;;;17.87;100.00
31285;BME280;56605;51.516;6.742;2022-08-19T01:18:39;101070.63;;;17.75;100.00
31285;BME280;56605;51.516;6.742;2022-08-19T01:21:10;101082.47;;;17.67;100.00
31285;BME280;56605;51.516;6.742;2022-08-19T01:23:41;101080.78;;;17.73;100.00
31285;BME280;56605;51.516;6.742;2022-08-19T01:26:12;101087.03;;;17.80;100.00
31285;BME280;56605;51.516;6.742;2022-08-19T01:28:39;101087.03;;;17.80;100.00
31285;BME280;56605;51.516;6.742;2022-08-19T01:31:06;101080.59;;;17.88;100.00
31285;BME280;56605;51.516;6.742;2022-08-19T01:33:32;101074.97;;;17.83;100.00
31285;BME280;56605;51.516;6.742;2022-08-19T01:36:13;101079.75;;;17.87;100.00
31285;BME280;56605;51.516;6.742;2022-08-19T01:38:41;101078.72;;;17.68;100.00
31285;BME280;56605;51.516;6.742;2022-08-19T01:41:08;101082.25;;;17.55;100.00
31285;BME280;56605;51.516;6.742;2022-08-19T01:43:34;101071.88;;;17.59;100.00
31285;BME280;56605;51.516;6.742;2022-08-19T01:45:59;101074.97;;;17.62;100.00
31285;BME280;56605;51.516;6.742;2022-08-19T01:48:26;101078.69;;;17.55;100.00
31285;BME280;56605;51.516;6.742;2022-08-19T01:50:51;101085.56;;;17.44;100.00
31285;BME280;56605;51.516;6.742;2022-08-19T01:53:17;101083.28;;;17.54;100.00
31285;BME280;56605;51.516;6.742;2022-08-19T01:55:43;101086.38;;;17.44;100.00
31285;BME280;56605;51.516;6.742;2022-08-19T01:58:12;101086.16;;;17.32;100.00
31285;BME280;56605;51.516;6.742;2022-08-19T02:00:40;101088.44;;;17.22;100.00
31285;BME280;56605;51.516;6.742;2022-08-19T02:03:05;101090.94;;;17.44;100.00
31285;BME280;56605;51.516;6.742;2022-08-19T02:05:31;101087.63;;;17.42;100.00
31285;BME280;56605;51.516;6.742;2022-08-19T02:07:57;101096.75;;;17.41;100.00
31285;BME280;56605;51.516;6.742;2022-08-19T02:10:24;101083.69;;;17.58;100.00
31285;BME280;56605;51.516;6.742;2022-08-19T02:12:49;101082.66;;;17.52;100.00
31285;BME280;56605;51.516;6.742;2022-08-19T02:15:16;101072.66;;;17.46;100.00
31285;BME280;56605;51.516;6.742;2022-08-19T02:17:43;101076.00;;;17.48;100.00
31285;BME280;56605;51.516;6.742;2022-08-19T02:20:09;101076.59;;;17.30;100.00
31285;BME280;56605;51.516;6.742;2022-08-19T02:22:35;101073.72;;;17.45;100.00
31285;BME280;56605;51.516;6.742;2022-08-19T02:25:01;101078.28;;;17.58;100.00
31285;BME280;56605;51.516;6.742;2022-08-19T02:27:27;101072.47;;;17.81;100.00
31285;BME280;56605;51.516;6.742;2022-08-19T02:29:52;101081.84;;;17.92;100.00
31285;BME280;56605;51.516;6.742;2022-08-19T02:32:19;101086.00;;;17.88;100.00
31285;BME280;56605;51.516;6.742;2022-08-19T02:34:46;101090.78;;;17.59;100.00
31285;BME280;56605;51.516;6.742;2022-08-19T02:37:11;101096.72;;;17.27;100.00
31285;BME280;56605;51.516;6.742;2022-08-19T02:39:57;101098.00;;;17.45;100.00
31285;BME280;56605;51.516;6.742;2022-08-19T02:42:23;101098.25;;;17.50;100.00
31285;BME280;56605;51.516;6.742;2022-08-19T02:44:48;101100.66;;;17.31;100.00
31285;BME280;56605;51.516;6.742;2022-08-19T02:47:14;101095.69;;;17.21;100.00
31285;BME280;56605;51.516;6.742;2022-08-19T02:49:40;101088.88;;;17.32;100.00
31285;BME280;56605;51.516;6.742;2022-08-19T02:52:06;101096.97;;;17.32;100.00
31285;BME280;56605;51.516;6.742;2022-08-19T02:54:31;101089.69;;;17.26;100.00
31285;BME280;56605;51.516;6.742;2022-08-19T02:56:56;101091.94;;;17.22;100.00
31285;BME280;56605;51.516;6.742;2022-08-19T02:59:22;101092.72;;;17.09;100.00
31285;BME280;56605;51.516;6.742;2022-08-19T03:01:47;101093.41;;;17.32;100.00
31285;BME280;56605;51.516;6.742;2022-08-19T03:04:14;101095.31;;;17.52;100.00
31285;BME280;56605;51.516;6.742;2022-08-19T03:06:44;101098.00;;;17.45;100.00
31285;BME280;56605;51.516;6.742;2022-08-19T03:09:11;101095.50;;;17.43;100.00
31285;BME280;56605;51.516;6.742;2022-08-19T03:11:37;101096.19;;;17.59;100.00
31285;BME280;56605;51.516;6.742;2022-08-19T03:14:03;101091.59;;;17.59;100.00
31285;BME280;56605;51.516;6.742;2022-08-19T03:16:34;101099.88;;;17.58;100.00
31285;BME280;56605;51.516;6.742;2022-08-19T03:19:01;101087.03;;;17.67;100.00
31285;BME280;56605;51.516;6.742;2022-08-19T03:21:29;101092.00;;;17.63;100.00
31285;BME280;56605;51.516;6.742;2022-08-19T03:23:59;101089.94;;;17.72;100.00
31285;BME280;56605;51.516;6.742;2022-08-19T03:26:24;101087.25;;;17.72;100.00
31285;BME280;56605;51.516;6.742;2022-08-19T03:28:50;101083.28;;;17.61;100.00
31285;BME280;56605;51.516;6.742;2022-08-19T03:31:18;101084.09;;;17.55;100.00
31285;BME280;56605;51.516;6.742;2022-08-19T03:33:44;101086.22;;;17.66;100.00
31285;BME280;56605;51.516;6.742;2022-08-19T03:36:15;101084.97;;;17.69;100.00
31285;BME280;56605;51.516;6.742;2022-08-19T03:38:45;101077.28;;;17.66;100.00
31285;BME280;56605;51.516;6.742;2022-08-19T03:41:14;101090.56;;;17.67;100.00
31285;BME280;56605;51.516;6.742;2022-08-19T03:43:41;101081.44;;;17.61;100.00
31285;BME280;56605;51.516;6.742;2022-08-19T03:46:12;101083.22;;;17.20;100.00
31285;BME280;56605;51.516;6.742;2022-08-19T03:48:39;101094.59;;;17.09;100.00
31285;BME280;56605;51.516;6.742;2022-08-19T03:51:07;101095.88;;;17.13;100.00
31285;BME280;56605;51.516;6.742;2022-08-19T03:53:34;101091.94;;;17.16;100.00
31285;BME280;56605;51.516;6.742;2022-08-19T03:56:00;101097.09;;;17.10;100.00
31285;BME280;56605;51.516;6.742;2022-08-19T03:58:29;101093.56;;;17.10;100.00
31285;BME280;56605;51.516;6.742;2022-08-19T04:00:55;101092.38;;;17.26;100.00
31285;BME280;56605;51.516;6.742;2022-08-19T04:03:22;101090.53;;;17.33;100.00
31285;BME280;56605;51.516;6.742;2022-08-19T04:05:47;101090.19;;;17.01;100.00
31285;BME280;56605;51.516;6.742;2022-08-19T04:08:15;101087.38;;;17.23;100.00
31285;BME280;56605;51.516;6.742;2022-08-19T04:10:47;101094.88;;;17.34;100.00
31285;BME280;56605;51.516;6.742;2022-08-19T04:13:13;101090.28;;;17.21;100.00
31285;BME280;56605;51.516;6.742;2022-08-19T04:15:40;101092.53;;;17.18;100.00
31285;BME280;56605;51.516;6.742;2022-08-19T04:18:08;101097.56;;;17.34;100.00
31285;BME280;56605;51.516;6.742;2022-08-19T04:20:45;101099.22;;;17.29;100.00
31285;BME280;56605;51.516;6.742;2022-08-19T04:23:12;101086.94;;;17.13;100.00
31285;BME280;56605;51.516;6.742;2022-08-19T04:25:42;101092.66;;;16.96;100.00
31285;BME280;56605;51.516;6.742;2022-08-19T04:28:09;101090.56;;;16.91;100.00
31285;BME280;56605;51.516;6.742;2022-08-19T04:30:44;101090.81;;;17.03;100.00
31285;BME280;56605;51.516;6.742;2022-08-19T04:33:11;101095.63;;;17.08;100.00
31285;BME280;56605;51.516;6.742;2022-08-19T04:35:39;101091.81;;;16.95;100.00
31285;BME280;56605;51.516;6.742;2022-08-19T04:38:05;101085.09;;;17.13;100.00
31285;BME280;56605;51.516;6.742;2022-08-19T04:40:31;101084.88;;;17.21;100.00
31285;BME280;56605;51.516;6.742;2022-08-19T04:43:15;101092.38;;;17.26;100.00
31285;BME280;56605;51.516;6.742;2022-08-19T04:45:43;101093.41;;;17.32;100.00
31285;BME280;56605;51.516;6.742;2022-08-19T04:48:08;101101.06;;;17.28;100.00
31285;BME280;56605;51.516;6.742;2022-08-19T04:50:35;101105.25;;;17.38;100.00
31285;BME280;56605;51.516;6.742;2022-08-19T04:53:00;101106.31;;;17.36;100.00
31285;BME280;56605;51.516;6.742;2022-08-19T04:55:26;101106.09;;;17.38;100.00
31285;BME280;56605;51.516;6.742;2022-08-19T04:57:51;101111.72;;;17.50;100.00
31285;BME280;56605;51.516;6.742;2022-08-19T05:00:16;101117.34;;;17.55;100.00
31285;BME280;56605;51.516;6.742;2022-08-19T05:02:42;101111.94;;;17.69;100.00
31285;BME280;56605;51.516;6.742;2022-08-19T05:05:07;101117.75;;;17.66;100.00
31285;BME280;56605;51.516;6.742;2022-08-19T05:07:33;101125.88;;;17.59;100.00
31285;BME280;56605;51.516;6.742;2022-08-19T05:09:58;101123.38;;;17.57;100.00
31285;BME280;56605;51.516;6.742;2022-08-19T05:12:24;101121.88;;;17.48;100.00
31285;BME280;56605;51.516;6.742;2022-08-19T05:14:49;101135.78;;;17.45;100.00
31285;BME280;56605;51.516;6.742;2022-08-19T05:17:15;101149.69;;;17.42;100.00
31285;BME280;56605;51.516;6.742;2022-08-19T05:19:40;101147.81;;;17.42;100.00
31285;BME280;56605;51.516;6.742;2022-08-19T05:22:24;101145.34;;;17.41;100.00
31285;BME280;56605;51.516;6.742;2022-08-19T05:25:09;101150.31;;;17.44;100.00
31285;BME280;56605;51.516;6.742;2022-08-19T05:27:35;101150.72;;;17.47;100.00
31285;BME280;56605;51.516;6.742;2022-08-19T05:30:00;101157.19;;;17.46;100.00
31285;BME280;56605;51.516;6.742;2022-08-19T05:32:27;101156.72;;;17.43;100.00
31285;BME280;56605;51.516;6.742;2022-08-19T05:34:53;101157.19;;;17.46;100.00
31285;BME280;56605;51.516;6.742;2022-08-19T05:37:18;101147.44;;;17.45;100.00
31285;BME280;56605;51.516;6.742;2022-08-19T05:39:44;101148.69;;;17.49;100.00
31285;BME280;56605;51.516;6.742;2022-08-19T05:42:11;101150.16;;;17.59;100.00
31285;BME280;56605;51.516;6.742;2022-08-19T05:44:39;101152.25;;;17.70;100.00
31285;BME280;56605;51.516;6.742;2022-08-19T05:47:06;101149.53;;;17.70;100.00
31285;BME280;56605;51.516;6.742;2022-08-19T05:49:33;101150.16;;;17.72;100.00
31285;BME280;56605;51.516;6.742;2022-08-19T05:51:58;101154.53;;;17.80;100.00
31285;BME280;56605;51.516;6.742;2022-08-19T05:54:26;101151.66;;;17.89;100.00
31285;BME280;56605;51.516;6.742;2022-08-19T05:56:53;101143.53;;;18.02;100.00
31285;BME280;56605;51.516;6.742;2022-08-19T05:59:19;101154.34;;;18.09;100.00
31285;BME280;56605;51.516;6.742;2022-08-19T06:01:48;101156.47;;;18.14;100.00
31285;BME280;56605;51.516;6.742;2022-08-19T06:04:18;101164.75;;;18.19;100.00
31285;BME280;56605;51.516;6.742;2022-08-19T06:06:45;101164.16;;;18.23;100.00
31285;BME280;56605;51.516;6.742;2022-08-19T06:09:11;101154.38;;;18.29;100.00
31285;BME280;56605;51.516;6.742;2022-08-19T06:11:43;101151.88;;;18.34;100.00
31285;BME280;56605;51.516;6.742;2022-08-19T06:14:21;101153.72;;;18.41;100.00
31285;BME280;56605;51.516;6.742;2022-08-19T06:16:47;101154.13;;;18.51;100.00
31285;BME280;56605;51.516;6.742;2022-08-19T06:19:16;101155.19;;;18.50;100.00
31285;BME280;56605;51.516;6.742;2022-08-19T06:21:44;101155.00;;;18.45;100.00
31285;BME280;56605;51.516;6.742;2022-08-19T06:24:13;101146.00;;;18.71;100.00
31285;BME280;56605;51.516;6.742;2022-08-19T06:26:41;101148.44;;;18.80;100.00
31285;BME280;56605;51.516;6.742;2022-08-19T06:29:07;101151.38;;;18.78;100.00
31285;BME280;56605;51.516;6.742;2022-08-19T06:31:34;101150.09;;;18.81;100.00
31285;BME280;56605;51.516;6.742;2022-08-19T06:34:01;101149.69;;;18.84;100.00
31285;BME280;56605;51.516;6.742;2022-08-19T06:36:34;101162.16;;;18.92;100.00
31285;BME280;56605;51.516;6.742;2022-08-19T06:39:06;101154.63;;;19.00;100.00
31285;BME280;56605;51.516;6.742;2022-08-19T06:41:35;101146.31;;;18.95;100.00
31285;BME280;56605;51.516;6.742;2022-08-19T06:44:01;101139.22;;;19.01;100.00
31285;BME280;56605;51.516;6.742;2022-08-19T06:46:26;101143.16;;;19.12;100.00
31285;BME280;56605;51.516;6.742;2022-08-19T06:48:56;101149.19;;;19.07;100.00
31285;BME280;56605;51.516;6.742;2022-08-19T06:51:21;101144.63;;;19.01;100.00
31285;BME280;56605;51.516;6.742;2022-08-19T06:53:48;101153.34;;;19.03;100.00
31285;BME280;56605;51.516;6.742;2022-08-19T06:56:19;101155.47;;;19.01;100.00
31285;BME280;56605;51.516;6.742;2022-08-19T06:58:46;101165.44;;;19.07;100.00
31285;BME280;56605;51.516;6.742;2022-08-19T07:01:12;101154.63;;;19.00;100.00
31285;BME280;56605;51.516;6.742;2022-08-19T07:03:38;101160.03;;;19.07;100.00
31285;BME280;56605;51.516;6.742;2022-08-19T07:06:10;101152.09;;;19.06;100.00
31285;BME280;56605;51.516;6.742;2022-08-19T07:08:37;101159.00;;;19.08;100.00
31285;BME280;56605;51.516;6.742;2022-08-19T07:11:07;101165.72;;;19.38;100.00
31285;BME280;56605;51.516;6.742;2022-08-19T07:13:34;101164.84;;;19.44;100.00
31285;BME280;56605;51.516;6.742;2022-08-19T07:16:06;101171.59;;;19.28;100.00
31285;BME280;56605;51.516;6.742;2022-08-19T07:18:32;101173.22;;;19.36;100.00
31285;BME280;56605;51.516;6.742;2022-08-19T07:23:29;101164.97;;;19.56;100.00
31285;BME280;56605;51.516;6.742;2022-08-19T07:25:54;101170.53;;;19.68;100.00
31285;BME280;56605;51.516;6.742;2022-08-19T07:28:20;101168.63;;;19.75;100.00
31285;BME280;56605;51.516;6.742;2022-08-19T07:33:11;101176.59;;;20.02;100.00
31285;BME280;56605;51.516;6.742;2022-08-19T07:35:36;101183.44;;;20.05;100.00
31285;BME280;56605;51.516;6.742;2022-08-19T07:38:01;101180.06;;;20.35;100.00
31285;BME280;56605;51.516;6.742;2022-08-19T07:40:28;101184.84;;;20.59;98.83
31285;BME280;56605;51.516;6.742;2022-08-19T07:42:54;101188.84;;;20.75;97.54
31285;BME280;56605;51.516;6.742;2022-08-19T07:45:19;101197.97;;;20.81;96.78
31285;BME280;56605;51.516;6.742;2022-08-19T07:47:44;101193.50;;;20.86;94.80
31285;BME280;56605;51.516;6.742;2022-08-19T07:50:11;101201.19;;;20.96;94.48
31285;BME280;56605;51.516;6.742;2022-08-19T07:52:37;101197.47;;;21.09;92.16
31285;BME280;56605;51.516;6.742;2022-08-19T07:55:05;101202.06;;;21.27;91.27
31285;BME280;56605;51.516;6.742;2022-08-19T07:57:31;101203.38;;;21.37;90.12
31285;BME280;56605;51.516;6.742;2022-08-19T07:59:56;101201.22;;;21.27;89.25
31285;BME280;56605;51.516;6.742;2022-08-19T08:02:22;101206.69;;;21.08;90.46
31285;BME280;56605;51.516;6.742;2022-08-19T08:04:47;101213.16;;;21.07;90.20
31285;BME280;56605;51.516;6.742;2022-08-19T08:07:31;101219.50;;;21.01;90.73
31285;BME280;56605;51.516;6.742;2022-08-19T08:10:15;101223.13;;;20.95;91.29
31285;BME280;56605;51.516;6.742;2022-08-19T08:12:40;101223.91;;;21.33;90.27
31285;BME280;56605;51.516;6.742;2022-08-19T08:15:10;101227.75;;;21.44;88.82
31285;BME280;56605;51.516;6.742;2022-08-19T08:17:36;101225.22;;;21.30;89.54
31285;BME280;56605;51.516;6.742;2022-08-19T08:20:06;101219.09;;;21.16;89.92
31285;BME280;56605;51.516;6.742;2022-08-19T08:22:32;101225.34;;;21.35;89.05
31285;BME280;56605;51.516;6.742;2022-08-19T08:25:21;101233.75;;;21.64;85.31
31285;BME280;56605;51.516;6.742;2022-08-19T08:27:48;101238.13;;;21.96;83.47
31285;BME280;56605;51.516;6.742;2022-08-19T08:30:20;101238.31;;;21.83;82.89
31285;BME280;56605;51.516;6.742;2022-08-19T08:32:47;101235.94;;;22.29;82.18
31285;BME280;56605;51.516;6.742;2022-08-19T08:35:15;101240.88;;;22.08;82.47
31285;BME280;56605;51.516;6.742;2022-08-19T08:37:43;101245.50;;;21.77;83.72
31285;BME280;56605;51.516;6.742;2022-08-19T08:40:34;101241.34;;;21.74;83.69
31285;BME280;56605;51.516;6.742;2022-08-19T08:43:24;101240.00;;;21.84;84.13
31285;BME280;56605;51.516;6.742;2022-08-19T08:46:03;101242.94;;;21.82;84.90
31285;BME280;56605;51.516;6.742;2022-08-19T08:48:39;101247.03;;;22.15;83.77
31285;BME280;56605;51.516;6.742;2022-08-19T08:51:11;101240.69;;;22.34;81.96
31285;BME280;56605;51.516;6.742;2022-08-19T08:53:41;101240.69;;;22.46;80.53
31285;BME280;56605;51.516;6.742;2022-08-19T08:56:09;101240.22;;;22.49;80.27
31285;BME280;56605;51.516;6.742;2022-08-19T08:59:00;101243.53;;;22.27;79.20
31285;BME280;56605;51.516;6.742;2022-08-19T09:01:29;101230.78;;;22.87;74.05
31285;BME280;56605;51.516;6.742;2022-08-19T09:03:54;101231.94;;;23.03;74.96
31285;BME280;56605;51.516;6.742;2022-08-19T09:09:20;101238.84;;;23.23;74.36
31285;BME280;56605;51.516;6.742;2022-08-19T09:12:06;101233.00;;;23.55;73.73
31285;BME280;56605;51.516;6.742;2022-08-19T09:14:50;101232.81;;;24.09;70.57
31285;BME280;56605;51.516;6.742;2022-08-19T09:17:19;101231.06;;;24.02;68.30
31285;BME280;56605;51.516;6.742;2022-08-19T09:19:54;101225.56;;;23.68;70.59
31285;BME280;56605;51.516;6.742;2022-08-19T09:22:20;101229.00;;;24.10;70.06
31285;BME280;56605;51.516;6.742;2022-08-19T09:24:50;101225.81;;;23.66;71.24
31285;BME280;56605;51.516;6.742;2022-08-19T09:27:17;101231.63;;;23.41;72.96
31285;BME280;56605;51.516;6.742;2022-08-19T09:29:44;101223.78;;;23.45;73.38
31285;BME280;56605;51.516;6.742;2022-08-19T09:32:09;101234.22;;;23.94;70.95
31285;BME280;56605;51.516;6.742;2022-08-19T09:34:35;101231.63;;;23.87;70.33
31285;BME280;56605;51.516;6.742;2022-08-19T09:37:00;101234.84;;;24.13;69.89
31285;BME280;56605;51.516;6.742;2022-08-19T09:39:26;101226.47;;;24.37;69.11
31285;BME280;56605;51.516;6.742;2022-08-19T09:41:51;101230.88;;;24.38;68.33
31285;BME280;56605;51.516;6.742;2022-08-19T09:44:18;101234.91;;;24.53;68.03
31285;BME280;56605;51.516;6.742;2022-08-19T09:46:45;101235.41;;;24.50;68.21
31285;BME280;56605;51.516;6.742;2022-08-19T09:49:12;101229.78;;;24.79;67.15
31285;BME280;56605;51.516;6.742;2022-08-19T09:51:37;101228.44;;;24.42;68.34
31285;BME280;56605;51.516;6.742;2022-08-19T09:54:03;101221.72;;;24.67;67.35
31285;BME280;56605;51.516;6.742;2022-08-19T09:56:30;101217.94;;;24.51;67.99
31285;BME280;56605;51.516;6.742;2022-08-19T09:58:58;101225.22;;;24.85;66.18
31285;BME280;56605;51.516;6.742;2022-08-19T10:01:27;101229.78;;;25.18;64.79
31285;BME280;56605;51.516;6.742;2022-08-19T10:03:55;101230.53;;;24.91;65.56
31285;BME280;56605;51.516;6.742;2022-08-19T10:06:22;101230.34;;;25.20;64.48
31285;BME280;56605;51.516;6.742;2022-08-19T10:08:49;101232.38;;;25.80;62.68
31285;BME280;56605;51.516;6.742;2022-08-19T10:11:14;101220.16;;;25.61;63.48
31285;BME280;56605;51.516;6.742;2022-08-19T10:13:43;101233.53;;;25.35;63.81
31285;BME280;56605;51.516;6.742;2022-08-19T10:16:12;101228.09;;;25.40;63.61
31285;BME280;56605;51.516;6.742;2022-08-19T10:18:38;101228.25;;;25.78;62.49
31285;BME280;56605;51.516;6.742;2022-08-19T10:21:09;101229.44;;;25.37;62.94
31285;BME280;56605;51.516;6.742;2022-08-19T10:23:37;101226.47;;;24.20;67.61
31285;BME280;56605;51.516;6.742;2022-08-19T10:26:06;101228.28;;;24.31;67.82
31285;BME280;56605;51.516;6.742;2022-08-19T10:28:36;101220.53;;;25.47;63.10
31285;BME280;56605;51.516;6.742;2022-08-19T10:31:16;101215.09;;;25.25;62.96
31285;BME280;56605;51.516;6.742;2022-08-19T10:33:43;101209.88;;;25.23;62.96
31285;BME280;56605;51.516;6.742;2022-08-19T10:36:14;101212.91;;;24.42;65.55
31285;BME280;56605;51.516;6.742;2022-08-19T10:38:40;101202.75;;;24.77;64.98
31285;BME280;56605;51.516;6.742;2022-08-19T10:41:17;101202.22;;;25.48;62.61
31285;BME280;56605;51.516;6.742;2022-08-19T10:43:44;101201.09;;;26.80;58.78
31285;BME280;56605;51.516;6.742;2022-08-19T10:46:12;101201.94;;;26.91;57.31
31285;BME280;56605;51.516;6.742;2022-08-19T10:48:38;101202.50;;;26.93;57.88
31285;BME280;56605;51.516;6.742;2022-08-19T10:51:04;101195.91;;;25.69;60.70
31285;BME280;56605;51.516;6.742;2022-08-19T10:53:49;101199.97;;;24.72;63.87
31285;BME280;56605;51.516;6.742;2022-08-19T10:56:14;101200.56;;;25.19;61.72
31285;BME280;56605;51.516;6.742;2022-08-19T10:58:59;101209.75;;;26.23;58.40
31285;BME280;56605;51.516;6.742;2022-08-19T11:01:26;101209.34;;;26.09;58.38
31285;BME280;56605;51.516;6.742;2022-08-19T11:03:52;101202.41;;;25.63;60.20
31285;BME280;56605;51.516;6.742;2022-08-19T11:06:18;101196.44;;;26.32;58.72
31285;BME280;56605;51.516;6.742;2022-08-19T11:08:44;101193.94;;;26.79;56.89
31285;BME280;56605;51.516;6.742;2022-08-19T11:11:10;101195.00;;;27.31;54.59
31285;BME280;56605;51.516;6.742;2022-08-19T11:13:38;101198.41;;;26.90;56.34
31285;BME280;56605;51.516;6.742;2022-08-19T11:16:14;101199.81;;;26.50;56.52
31285;BME280;56605;51.516;6.742;2022-08-19T11:18:42;101195.94;;;25.47;57.22
31285;BME280;56605;51.516;6.742;2022-08-19T11:21:15;101192.66;;;24.78;57.86
31285;BME280;56605;51.516;6.742;2022-08-19T11:23:48;101193.06;;;25.59;55.41
31285;BME280;56605;51.516;6.742;2022-08-19T11:26:15;101193.56;;;26.54;53.69
31285;BME280;56605;51.516;6.742;2022-08-19T11:28:41;101193.03;;;26.19;54.89
31285;BME280;56605;51.516;6.742;2022-08-19T11:31:11;101205.25;;;25.74;56.50
31285;BME280;56605;51.516;6.742;2022-08-19T11:33:37;101188.81;;;25.18;58.38
31285;BME280;56605;51.516;6.742;2022-08-19T11:36:02;101192.63;;;24.95;58.42
31285;BME280;56605;51.516;6.742;2022-08-19T11:38:28;101191.47;;;25.13;57.28
31285;BME280;56605;51.516;6.742;2022-08-19T11:41:06;101183.47;;;25.56;56.18
31285;BME280;56605;51.516;6.742;2022-08-19T11:43:33;101191.50;;;26.82;53.19
31285;BME280;56605;51.516;6.742;2022-08-19T11:45:58;101178.78;;;27.19;51.07
31285;BME280;56605;51.516;6.742;2022-08-19T11:48:24;101184.13;;;27.83;50.46
31285;BME280;56605;51.516;6.742;2022-08-19T11:50:52;101182.34;;;28.71;46.27
31285;BME280;56605;51.516;6.742;2022-08-19T11:53:20;101179.88;;;28.69;46.30
31285;BME280;56605;51.516;6.742;2022-08-19T11:55:46;101177.16;;;28.59;45.13
31285;BME280;56605;51.516;6.742;2022-08-19T11:58:13;101182.69;;;27.39;49.24
31285;BME280;56605;51.516;6.742;2022-08-19T12:00:41;101177.16;;;28.54;45.78
31285;BME280;56605;51.516;6.742;2022-08-19T12:03:06;101184.00;;;29.28;45.19
31285;BME280;56605;51.516;6.742;2022-08-19T12:05:33;101175.97;;;28.76;46.06
31285;BME280;56605;51.516;6.742;2022-08-19T12:07:58;101175.13;;;28.80;46.35
31285;BME280;56605;51.516;6.742;2022-08-19T12:10:24;101178.16;;;29.80;42.73
31285;BME280;56605;51.516;6.742;2022-08-19T12:12:49;101172.03;;;29.08;44.51
31285;BME280;56605;51.516;6.742;2022-08-19T12:15:15;101178.66;;;29.02;44.78
31285;BME280;56605;51.516;6.742;2022-08-19T12:17:41;101173.16;;;29.47;43.50
31285;BME280;56605;51.516;6.742;2022-08-19T12:20:11;101180.56;;;29.06;43.09
31285;BME280;56605;51.516;6.742;2022-08-19T12:22:38;101165.38;;;29.14;42.80
31285;BME280;56605;51.516;6.742;2022-08-19T12:25:07;101171.72;;;29.15;42.48
31285;BME280;56605;51.516;6.742;2022-08-19T12:27:32;101169.53;;;28.30;43.26
31285;BME280;56605;51.516;6.742;2022-08-19T12:29:58;101162.03;;;28.61;42.25
31285;BME280;56605;51.516;6.742;2022-08-19T12:32:26;101164.34;;;28.13;44.41
31285;BME280;56605;51.516;6.742;2022-08-19T12:34:52;101159.63;;;27.35;46.89
31285;BME280;56605;51.516;6.742;2022-08-19T12:37:17;101153.94;;;28.96;42.26
31285;BME280;56605;51.516;6.742;2022-08-19T12:39:43;101150.84;;;28.42;41.67
31285;BME280;56605;51.516;6.742;2022-08-19T12:42:10;101164.06;;;28.09;42.12
31285;BME280;56605;51.516;6.742;2022-08-19T12:44:37;101157.50;;;27.94;42.43
31285;BME280;56605;51.516;6.742;2022-08-19T12:47:04;101152.31;;;28.95;41.06
31285;BME280;56605;51.516;6.742;2022-08-19T12:49:31;101156.16;;;28.89;42.56
31285;BME280;56605;51.516;6.742;2022-08-19T12:51:59;101165.34;;;29.94;40.42
31285;BME280;56605;51.516;6.742;2022-08-19T12:54:26;101155.84;;;29.01;42.19
31285;BME280;56605;51.516;6.742;2022-08-19T12:56:51;101160.81;;;28.94;42.71
31285;BME280;56605;51.516;6.742;2022-08-19T12:59:17;101150.41;;;28.80;42.67